createdAt,value
2022-11-06T00:01:10.906Z,99.90
2022-11-06T00:03:38.594Z,99.90
2022-11-06T00:06:28.172Z,99.90
2022-11-06T00:08:55.764Z,99.90
2022-11-06T00:11:22.742Z,99.90
2022-11-06T00:13:52.424Z,99.90
2022-11-06T00:16:20.288Z,99.90
2022-11-06T00:18:47.867Z,99.90
2022-11-06T00:21:23.995Z,99.90
2022-11-06T00:23:51.806Z,99.90
2022-11-06T00:26:21.478Z,99.90
2022-11-06T00:28:49.106Z,99.90
2022-11-06T00:31:19.233Z,99.90
2022-11-06T00:33:46.919Z,99.90
2022-11-06T00:36:16.981Z,99.90
2022-11-06T00:38:44.157Z,99.90
2022-11-06T00:41:13.635Z,99.90
2022-11-06T00:43:40.836Z,99.90
2022-11-06T00:46:14.295Z,99.90
2022-11-06T00:48:41.916Z,99.90
2022-11-06T00:51:16.554Z,99.90
2022-11-06T00:53:44.305Z,99.90
2022-11-06T00:56:18.421Z,99.90
2022-11-06T00:58:46.706Z,99.90
2022-11-06T01:01:17.238Z,99.90
2022-11-06T01:03:46.054Z,99.90
2022-11-06T01:06:15.959Z,99.90
2022-11-06T01:08:43.455Z,99.90
2022-11-06T01:11:22.283Z,99.90
2022-11-06T01:13:52.012Z,99.90
2022-11-06T01:16:20.014Z,99.90
2022-11-06T01:18:47.250Z,99.90
2022-11-06T01:21:18.050Z,99.90
2022-11-06T01:23:45.365Z,99.90
2022-11-06T01:26:13.957Z,99.90
2022-11-06T01:28:42.118Z,99.90
2022-11-06T01:31:12.602Z,99.90
2022-11-06T01:33:39.888Z,99.90
2022-11-06T01:36:12.850Z,99.90
2022-11-06T01:38:44.897Z,99.90
2022-11-06T01:41:20.974Z,99.90
2022-11-06T01:43:54.192Z,99.90
2022-11-06T01:46:23.363Z,99.90
2022-11-06T01:49:12.264Z,99.90
2022-11-06T01:51:55.236Z,99.90
2022-11-06T01:54:25.598Z,99.90
2022-11-06T01:56:56.350Z,99.90
2022-11-06T01:59:26.878Z,99.90
2022-11-06T02:01:54.332Z,99.90
2022-11-06T02:04:33.938Z,99.90
2022-11-06T02:07:01.409Z,99.90
2022-11-06T02:09:30.654Z,99.90
2022-11-06T02:12:18.078Z,99.90
2022-11-06T02:14:53.758Z,99.90
2022-11-06T02:17:31.268Z,99.90
2022-11-06T02:20:13.339Z,99.90
2022-11-06T02:23:17.662Z,99.90
2022-11-06T02:26:10.345Z,99.90
2022-11-06T02:28:52.730Z,99.90
2022-11-06T02:31:29.095Z,99.90
2022-11-06T02:34:05.704Z,99.90
2022-11-06T02:36:37.885Z,99.90
2022-11-06T02:39:11.158Z,99.90
2022-11-06T02:41:42.667Z,99.90
2022-11-06T02:44:15.565Z,99.90
2022-11-06T02:46:49.819Z,99.90
2022-11-06T02:49:31.071Z,99.90
2022-11-06T02:52:04.981Z,99.90
2022-11-06T02:54:37.714Z,99.90
2022-11-06T02:57:11.627Z,99.90
2022-11-06T02:59:52.999Z,99.90
2022-11-06T03:02:30.840Z,99.90
2022-11-06T03:05:12.941Z,99.90
2022-11-06T03:08:19.229Z,99.90
2022-11-06T03:11:01.555Z,99.90
2022-11-06T03:13:42.675Z,99.90
2022-11-06T03:16:37.601Z,99.90
2022-11-06T03:19:31.163Z,99.90
2022-11-06T03:22:25.759Z,99.90
2022-11-06T03:25:01.689Z,99.90
2022-11-06T03:28:02.982Z,99.90
2022-11-06T03:30:32.059Z,99.90
2022-11-06T03:33:15.387Z,99.90
2022-11-06T03:35:50.802Z,99.90
2022-11-06T03:38:22.342Z,99.90
2022-11-06T03:40:55.343Z,99.90
2022-11-06T03:43:28.563Z,99.90
2022-11-06T03:45:58.029Z,99.90
2022-11-06T03:48:39.832Z,99.90
2022-11-06T03:51:21.259Z,99.90
2022-11-06T03:53:58.227Z,99.90
2022-11-06T03:56:35.550Z,99.90
2022-11-06T03:59:05.996Z,99.90
2022-11-06T04:01:38.702Z,99.90
2022-11-06T04:04:30.627Z,99.90
2022-11-06T04:07:10.794Z,99.90
2022-11-06T04:09:59.215Z,99.90
2022-11-06T04:13:03.688Z,99.90
2022-11-06T04:15:33.992Z,99.90
2022-11-06T04:18:00.908Z,99.90
2022-11-06T04:20:56.255Z,99.90
2022-11-06T04:23:38.655Z,99.90
2022-11-06T04:26:38.021Z,99.90
2022-11-06T04:29:48.565Z,99.90
2022-11-06T04:32:35.721Z,99.90
2022-11-06T04:35:14.032Z,99.90
2022-11-06T04:37:53.287Z,99.90
2022-11-06T04:40:35.321Z,99.90
2022-11-06T04:43:33.487Z,99.90
2022-11-06T04:46:02.366Z,99.90
2022-11-06T04:48:30.494Z,99.90
2022-11-06T04:51:03.063Z,99.90
2022-11-06T04:53:32.309Z,99.90
2022-11-06T04:56:09.277Z,99.90
2022-11-06T04:58:36.258Z,99.90
2022-11-06T05:01:03.252Z,99.90
2022-11-06T05:03:30.247Z,99.90
2022-11-06T05:05:57.184Z,99.90
2022-11-06T05:08:24.165Z,99.90
2022-11-06T05:10:51.137Z,99.90
2022-11-06T05:13:18.117Z,99.90
2022-11-06T05:15:45.184Z,99.90
2022-11-06T05:18:12.575Z,99.90
2022-11-06T05:20:39.825Z,99.90
2022-11-06T05:23:06.805Z,99.90
2022-11-06T05:25:36.139Z,99.90
2022-11-06T05:28:08.024Z,99.90
2022-11-06T05:30:38.038Z,99.90
2022-11-06T05:33:04.992Z,99.90
2022-11-06T05:35:32.651Z,99.90
2022-11-06T05:38:01.576Z,99.90
2022-11-06T05:40:28.922Z,99.90
2022-11-06T05:42:55.891Z,99.90
2022-11-06T05:45:22.885Z,99.90
2022-11-06T05:47:49.856Z,99.90
2022-11-06T05:50:17.146Z,99.90
2022-11-06T05:52:44.100Z,99.90
2022-11-06T05:55:14.695Z,99.90
2022-11-06T05:57:42.340Z,99.90
2022-11-06T06:00:10.877Z,99.90
2022-11-06T06:02:38.592Z,99.90
2022-11-06T06:05:06.786Z,99.90
2022-11-06T06:07:33.785Z,99.90
2022-11-06T06:10:00.826Z,99.90
2022-11-06T06:12:27.845Z,99.90
2022-11-06T06:14:54.995Z,99.90
2022-11-06T06:17:22.478Z,99.90
2022-11-06T06:19:49.488Z,99.90
2022-11-06T06:22:16.834Z,99.90
2022-11-06T06:24:43.913Z,99.90
2022-11-06T06:27:11.244Z,99.90
2022-11-06T06:29:38.229Z,99.90
2022-11-06T06:32:05.663Z,99.90
2022-11-06T06:34:32.626Z,99.90
2022-11-06T06:37:00.422Z,99.90
2022-11-06T06:39:27.360Z,99.90
2022-11-06T06:41:54.290Z,99.90
2022-11-06T06:44:21.255Z,99.90
2022-11-06T06:46:48.292Z,99.90
2022-11-06T06:49:15.254Z,99.90
2022-11-06T06:51:42.245Z,99.90
2022-11-06T06:54:09.359Z,99.90
2022-11-06T06:56:36.436Z,99.90
2022-11-06T06:59:03.436Z,99.90
2022-11-06T07:01:30.821Z,99.90
2022-11-06T07:04:03.686Z,99.90
2022-11-06T07:06:31.297Z,99.90
2022-11-06T07:08:58.387Z,99.90
2022-11-06T07:11:25.491Z,99.90
2022-11-06T07:13:52.443Z,99.90
2022-11-06T07:16:21.305Z,99.90
2022-11-06T07:18:48.278Z,99.90
2022-11-06T07:21:15.226Z,99.90
2022-11-06T07:23:42.222Z,99.90
2022-11-06T07:26:09.277Z,99.90
2022-11-06T07:28:36.265Z,99.90
2022-11-06T07:31:06.591Z,99.90
2022-11-06T07:33:34.038Z,99.90
2022-11-06T07:36:09.802Z,99.90
2022-11-06T07:38:37.970Z,99.90
2022-11-06T07:41:07.964Z,99.90
2022-11-06T07:43:35.751Z,99.90
2022-11-06T07:46:05.435Z,99.90
2022-11-06T07:48:33.111Z,99.90
2022-11-06T07:51:03.060Z,99.90
2022-11-06T07:53:30.103Z,99.90
2022-11-06T07:55:57.418Z,99.90
2022-11-06T07:58:25.063Z,99.90
2022-11-06T08:00:54.310Z,99.90
2022-11-06T08:03:21.858Z,99.90
2022-11-06T08:05:49.054Z,99.90
2022-11-06T08:08:16.364Z,99.90
2022-11-06T08:10:44.159Z,99.90
2022-11-06T08:13:12.486Z,99.90
2022-11-06T08:15:40.767Z,99.90
2022-11-06T08:18:08.848Z,99.90
2022-11-06T08:20:37.724Z,99.90
2022-11-06T08:23:07.850Z,99.90
2022-11-06T08:25:35.102Z,99.90
2022-11-06T08:28:03.272Z,99.90
2022-11-06T08:30:31.274Z,99.90
2022-11-06T08:33:05.686Z,99.90
2022-11-06T08:35:34.519Z,99.90
2022-11-06T08:38:01.469Z,99.90
2022-11-06T08:40:31.207Z,99.90
2022-11-06T08:43:07.018Z,99.90
2022-11-06T08:45:40.556Z,99.90
2022-11-06T08:48:08.359Z,99.90
2022-11-06T08:50:37.036Z,99.90
2022-11-06T08:53:06.339Z,99.90
2022-11-06T08:55:35.368Z,99.90
2022-11-06T08:58:03.053Z,99.90
2022-11-06T09:00:30.217Z,99.90
2022-11-06T09:03:02.471Z,99.90
2022-11-06T09:05:31.031Z,99.90
2022-11-06T09:07:59.180Z,99.90
2022-11-06T09:10:27.234Z,99.90
2022-11-06T09:12:55.810Z,99.90
2022-11-06T09:15:22.931Z,99.90
2022-11-06T09:17:51.549Z,99.90
2022-11-06T09:20:20.373Z,99.90
2022-11-06T09:22:47.569Z,99.90
2022-11-06T09:25:15.417Z,99.90
2022-11-06T09:27:43.511Z,99.30
2022-11-06T09:30:12.939Z,97.20
2022-11-06T09:32:45.015Z,97.70
2022-11-06T09:35:11.962Z,94.40
2022-11-06T09:37:38.963Z,93.20
2022-11-06T09:40:06.823Z,94.00
2022-11-06T09:43:11.979Z,97.70
2022-11-06T09:45:41.160Z,97.40
2022-11-06T09:48:11.163Z,99.90
2022-11-06T09:50:44.455Z,99.90
2022-11-06T09:53:20.296Z,99.90
2022-11-06T09:55:49.447Z,99.90
2022-11-06T09:58:24.136Z,99.90
2022-11-06T10:00:53.387Z,99.90
2022-11-06T10:03:28.270Z,99.90
2022-11-06T10:05:55.300Z,99.90
2022-11-06T10:08:23.987Z,99.90
2022-11-06T10:10:50.859Z,99.90
2022-11-06T10:13:42.387Z,99.90
2022-11-06T10:16:27.125Z,99.90
2022-11-06T10:19:31.595Z,99.90
2022-11-06T10:22:25.492Z,99.90
2022-11-06T10:25:20.008Z,99.90
2022-11-06T10:28:02.114Z,99.90
2022-11-06T10:30:53.962Z,99.90
2022-11-06T10:33:43.622Z,99.90
2022-11-06T10:36:17.556Z,99.90
2022-11-06T10:38:47.405Z,99.90
2022-11-06T10:41:23.353Z,99.90
2022-11-06T10:43:56.866Z,99.90
2022-11-06T10:46:49.515Z,99.90
2022-11-06T10:49:28.444Z,99.90
2022-11-06T10:52:09.889Z,99.90
2022-11-06T10:54:59.633Z,99.90
2022-11-06T10:57:51.368Z,99.90
2022-11-06T11:00:18.423Z,99.90
2022-11-06T11:02:57.859Z,99.90
2022-11-06T11:05:27.097Z,99.90
2022-11-06T11:07:55.174Z,99.90
2022-11-06T11:10:26.729Z,99.90
2022-11-06T11:13:05.496Z,99.90
2022-11-06T11:15:53.125Z,99.90
2022-11-06T11:18:31.863Z,99.90
2022-11-06T11:21:15.317Z,99.90
2022-11-06T11:23:42.423Z,99.90
2022-11-06T11:26:20.670Z,99.90
2022-11-06T11:28:56.955Z,99.90
2022-11-06T11:31:32.766Z,99.90
2022-11-06T11:34:07.113Z,99.90
2022-11-06T11:36:48.983Z,99.90
2022-11-06T11:39:18.207Z,99.90
2022-11-06T11:41:45.354Z,99.90
2022-11-06T11:44:12.246Z,99.90
2022-11-06T11:46:53.694Z,99.90
2022-11-06T11:49:32.355Z,99.90
2022-11-06T11:52:02.606Z,99.90
2022-11-06T11:54:33.334Z,99.90
2022-11-06T11:57:16.661Z,99.90
2022-11-06T11:59:49.465Z,99.90
2022-11-06T12:02:36.421Z,99.90
2022-11-06T12:05:12.388Z,99.90
2022-11-06T12:07:46.508Z,99.90
2022-11-06T12:10:35.527Z,99.90
2022-11-06T12:13:13.385Z,99.90
2022-11-06T12:15:44.535Z,99.90
2022-11-06T12:18:18.317Z,99.90
2022-11-06T12:21:03.716Z,99.90
2022-11-06T12:23:56.403Z,99.90
2022-11-06T12:26:45.934Z,99.90
2022-11-06T12:29:57.565Z,99.90
2022-11-06T12:33:02.194Z,99.90
2022-11-06T12:35:31.936Z,99.90
2022-11-06T12:37:58.826Z,99.90
2022-11-06T12:40:30.897Z,99.90
2022-11-06T12:43:04.345Z,99.90
2022-11-06T12:45:56.923Z,99.90
2022-11-06T12:49:02.504Z,99.90
2022-11-06T12:52:08.810Z,99.90
2022-11-06T12:55:03.892Z,99.90
2022-11-06T12:57:46.480Z,99.90
2022-11-06T13:00:21.144Z,99.90
2022-11-06T13:03:00.101Z,99.90
2022-11-06T13:05:30.283Z,99.90
2022-11-06T13:08:31.897Z,99.90
2022-11-06T13:11:39.571Z,99.90
2022-11-06T13:14:15.212Z,99.90
2022-11-06T13:16:47.936Z,99.90
2022-11-06T13:19:40.883Z,99.90
2022-11-06T13:22:13.836Z,99.90
2022-11-06T13:24:51.312Z,99.90
2022-11-06T13:27:42.627Z,99.90
2022-11-06T13:30:17.404Z,99.90
2022-11-06T13:32:53.888Z,99.90
2022-11-06T13:35:22.391Z,99.90
2022-11-06T13:37:51.209Z,99.90
2022-11-06T13:40:32.877Z,99.90
2022-11-06T13:43:26.255Z,99.90
2022-11-06T13:45:57.590Z,99.90
2022-11-06T13:48:37.596Z,99.90
2022-11-06T13:51:20.652Z,99.90
2022-11-06T13:54:15.035Z,99.90
2022-11-06T13:57:19.348Z,99.90
2022-11-06T14:00:18.826Z,99.90
2022-11-06T14:02:51.981Z,99.90
2022-11-06T14:05:21.673Z,99.90
2022-11-06T14:07:51.352Z,99.90
2022-11-06T14:10:31.301Z,99.90
2022-11-06T14:12:58.347Z,99.90
2022-11-06T14:15:47.629Z,99.90
2022-11-06T14:18:23.923Z,99.90
2022-11-06T14:21:26.956Z,99.90
2022-11-06T14:24:15.304Z,99.90
2022-11-06T14:26:47.521Z,99.90
2022-11-06T14:29:26.485Z,99.90
2022-11-06T14:32:12.547Z,99.90
2022-11-06T14:34:41.918Z,99.90
2022-11-06T14:37:18.003Z,99.90
2022-11-06T14:39:57.124Z,99.90
2022-11-06T14:42:27.077Z,99.90
2022-11-06T14:44:59.608Z,99.90
2022-11-06T14:47:32.368Z,99.90
2022-11-06T14:50:12.238Z,99.90
2022-11-06T14:52:44.202Z,99.90
2022-11-06T14:55:31.350Z,99.90
2022-11-06T14:58:11.955Z,99.90
2022-11-06T15:01:22.269Z,99.90
2022-11-06T15:03:54.076Z,99.90
2022-11-06T15:06:33.330Z,99.90
2022-11-06T15:09:26.305Z,99.90
2022-11-06T15:12:01.346Z,99.90
2022-11-06T15:14:31.155Z,99.90
2022-11-06T15:17:11.055Z,99.90
2022-11-06T15:19:48.104Z,99.90
2022-11-06T15:22:42.754Z,99.90
2022-11-06T15:25:24.506Z,99.90
2022-11-06T15:28:27.162Z,99.90
2022-11-06T15:31:02.537Z,99.90
2022-11-06T15:33:36.898Z,99.90
2022-11-06T15:36:10.585Z,99.90
2022-11-06T15:38:40.476Z,99.90
2022-11-06T15:41:17.763Z,99.90
2022-11-06T15:43:46.796Z,99.90
2022-11-06T15:46:23.853Z,99.90
2022-11-06T15:49:26.659Z,99.90
2022-11-06T15:52:01.800Z,99.90
2022-11-06T15:54:56.884Z,99.90
2022-11-06T15:57:27.840Z,99.90
2022-11-06T16:00:11.314Z,99.90
2022-11-06T16:03:01.952Z,99.90
2022-11-06T16:05:31.538Z,99.90
2022-11-06T16:08:00.520Z,99.90
2022-11-06T16:10:27.955Z,99.90
2022-11-06T16:12:55.778Z,99.90
2022-11-06T16:15:48.855Z,99.90
2022-11-06T16:18:24.917Z,99.90
2022-11-06T16:21:09.805Z,99.90
2022-11-06T16:24:14.198Z,99.90
2022-11-06T16:26:47.895Z,99.90
2022-11-06T16:29:26.324Z,99.90
2022-11-06T16:32:05.670Z,99.90
2022-11-06T16:34:37.580Z,99.90
2022-11-06T16:37:08.142Z,99.90
2022-11-06T16:39:51.000Z,99.90
2022-11-06T16:42:28.186Z,99.90
2022-11-06T16:45:01.161Z,99.90
2022-11-06T16:47:28.869Z,99.90
2022-11-06T16:49:57.286Z,99.90
2022-11-06T16:52:38.873Z,99.90
2022-11-06T16:55:16.841Z,99.90
2022-11-06T16:57:48.921Z,99.90
2022-11-06T17:00:30.366Z,99.90
2022-11-06T17:03:09.094Z,99.90
2022-11-06T17:05:38.257Z,99.90
2022-11-06T17:08:05.217Z,99.90
2022-11-06T17:10:35.136Z,99.90
2022-11-06T17:13:21.466Z,99.90
2022-11-06T17:16:00.650Z,99.90
2022-11-06T17:18:33.215Z,99.90
2022-11-06T17:21:02.589Z,99.90
2022-11-06T17:23:31.273Z,99.90
2022-11-06T17:26:25.602Z,99.90
2022-11-06T17:28:52.647Z,99.90
2022-11-06T17:31:21.009Z,99.90
2022-11-06T17:33:48.728Z,99.90
2022-11-06T17:36:27.293Z,99.90
2022-11-06T17:38:55.880Z,99.90
2022-11-06T17:41:30.449Z,99.90
2022-11-06T17:44:05.760Z,99.90
2022-11-06T17:46:41.919Z,99.90
2022-11-06T17:49:15.802Z,99.90
2022-11-06T17:51:50.278Z,99.90
2022-11-06T17:54:22.614Z,99.90
2022-11-06T17:56:51.468Z,99.90
2022-11-06T17:59:18.599Z,99.90
2022-11-06T18:01:47.874Z,99.90
2022-11-06T18:04:15.043Z,99.90
2022-11-06T18:06:45.590Z,99.90
2022-11-06T18:09:13.784Z,99.90
2022-11-06T18:11:41.546Z,99.90
2022-11-06T18:14:08.647Z,99.90
2022-11-06T18:16:43.347Z,99.90
2022-11-06T18:19:15.425Z,99.90
2022-11-06T18:21:42.376Z,99.90
2022-11-06T18:24:09.916Z,99.90
2022-11-06T18:26:40.220Z,99.90
2022-11-06T18:29:08.408Z,99.90
2022-11-06T18:31:35.550Z,99.90
2022-11-06T18:34:03.945Z,99.90
2022-11-06T18:36:32.582Z,99.90
2022-11-06T18:38:59.542Z,99.90
2022-11-06T18:41:26.509Z,99.90
2022-11-06T18:43:59.481Z,99.90
2022-11-06T18:46:27.581Z,99.90
2022-11-06T18:48:55.856Z,99.90
2022-11-06T18:51:34.428Z,99.90
2022-11-06T18:54:05.097Z,99.90
2022-11-06T18:56:33.137Z,99.90
2022-11-06T18:59:00.602Z,99.90
2022-11-06T19:01:28.710Z,99.90
2022-11-06T19:03:55.795Z,99.90
2022-11-06T19:06:22.785Z,99.90
2022-11-06T19:08:49.860Z,99.90
2022-11-06T19:11:18.505Z,99.90
2022-11-06T19:13:48.342Z,99.90
2022-11-06T19:16:19.428Z,99.90
2022-11-06T19:21:31.044Z,99.90
2022-11-06T19:24:04.509Z,99.90
2022-11-06T19:26:34.968Z,99.90
2022-11-06T19:29:02.100Z,99.90
2022-11-06T19:31:30.245Z,99.90
2022-11-06T19:34:01.175Z,99.90
2022-11-06T19:36:29.093Z,99.90
2022-11-06T19:38:58.496Z,99.90
2022-11-06T19:41:26.823Z,99.90
2022-11-06T19:43:53.803Z,99.90
2022-11-06T19:46:25.020Z,99.90
2022-11-06T19:48:55.385Z,99.90
2022-11-06T19:51:22.514Z,99.90
2022-11-06T19:53:53.282Z,99.90
2022-11-06T19:56:21.085Z,99.90
2022-11-06T19:58:50.170Z,99.90
2022-11-06T20:01:17.747Z,99.90
2022-11-06T20:03:45.244Z,99.90
2022-11-06T20:06:13.398Z,99.90
2022-11-06T20:08:40.710Z,99.90
2022-11-06T20:11:12.847Z,99.90
2022-11-06T20:13:41.126Z,99.90
2022-11-06T20:16:13.809Z,99.90
2022-11-06T20:18:41.172Z,99.90
2022-11-06T20:21:10.791Z,99.90
2022-11-06T20:23:38.214Z,99.90
2022-11-06T20:26:06.166Z,99.90
2022-11-06T20:28:33.372Z,99.90
2022-11-06T20:31:04.207Z,99.90
2022-11-06T20:33:31.138Z,99.90
2022-11-06T20:35:58.088Z,99.90
2022-11-06T20:38:25.852Z,99.90
2022-11-06T20:40:57.056Z,99.90
2022-11-06T20:43:24.014Z,99.90
2022-11-06T20:45:51.376Z,99.90
2022-11-06T20:48:18.542Z,99.90
2022-11-06T20:51:04.178Z,99.90
2022-11-06T20:53:31.569Z,99.90
2022-11-06T20:56:00.090Z,99.90
2022-11-06T20:58:28.353Z,99.90
2022-11-06T21:01:19.846Z,99.90
2022-11-06T21:03:49.548Z,99.90
2022-11-06T21:06:17.905Z,99.90
2022-11-06T21:08:45.305Z,99.90
2022-11-06T21:11:16.830Z,99.90
2022-11-06T21:13:45.583Z,99.90
2022-11-06T21:16:15.595Z,99.90
2022-11-06T21:18:43.536Z,99.90
2022-11-06T21:21:13.489Z,99.90
2022-11-06T21:23:41.047Z,99.90
2022-11-06T21:26:10.959Z,99.90
2022-11-06T21:28:39.190Z,99.90
2022-11-06T21:31:09.872Z,99.90
2022-11-06T21:33:43.156Z,99.90
2022-11-06T21:36:16.391Z,99.90
2022-11-06T21:38:43.959Z,99.90
2022-11-06T21:41:13.383Z,99.90
2022-11-06T21:43:41.197Z,99.90
2022-11-06T21:46:11.533Z,99.90
2022-11-06T21:48:46.196Z,99.90
2022-11-06T21:51:20.631Z,99.90
2022-11-06T21:54:06.938Z,99.90
2022-11-06T21:56:34.745Z,99.90
2022-11-06T21:59:03.546Z,99.90
2022-11-06T22:01:31.622Z,99.90
2022-11-06T22:03:59.374Z,99.90
2022-11-06T22:06:27.985Z,99.90
2022-11-06T22:08:59.494Z,99.90
2022-11-06T22:11:38.161Z,99.90
2022-11-06T22:14:14.243Z,99.90
2022-11-06T22:16:43.299Z,99.90
2022-11-06T22:19:10.925Z,99.90
2022-11-06T22:21:39.781Z,99.90
2022-11-06T22:24:07.901Z,99.90
2022-11-06T22:26:35.865Z,99.90
2022-11-06T22:29:07.156Z,99.90
2022-11-06T22:31:34.434Z,99.90
2022-11-06T22:34:01.446Z,99.90
2022-11-06T22:36:28.526Z,99.90
2022-11-06T22:38:55.690Z,99.90
2022-11-06T22:41:24.496Z,99.90
2022-11-06T22:43:52.754Z,99.90
2022-11-06T22:46:23.549Z,99.90
2022-11-06T22:48:51.902Z,99.90
2022-11-06T22:51:21.487Z,99.90
2022-11-06T22:53:50.303Z,99.90
2022-11-06T22:56:17.697Z,99.90
2022-11-06T22:58:44.809Z,99.90
2022-11-06T23:01:12.489Z,99.90
2022-11-06T23:03:40.532Z,99.90
2022-11-06T23:06:09.577Z,99.90
2022-11-06T23:08:41.583Z,99.90
2022-11-06T23:11:13.105Z,99.90
2022-11-06T23:13:40.503Z,99.90
2022-11-06T23:16:13.261Z,99.90
2022-11-06T23:18:40.283Z,99.90
2022-11-06T23:21:15.400Z,99.90
2022-11-06T23:23:43.619Z,99.90
2022-11-06T23:26:14.591Z,99.90
2022-11-06T23:28:42.130Z,99.90
2022-11-06T23:31:10.649Z,99.90
2022-11-06T23:33:38.324Z,99.90
2022-11-06T23:36:17.686Z,99.90
2022-11-06T23:38:45.038Z,99.90
2022-11-06T23:41:34.971Z,99.90
2022-11-06T23:44:02.752Z,99.90
2022-11-06T23:46:32.188Z,99.90
2022-11-06T23:48:59.774Z,99.90
2022-11-06T23:51:27.901Z,99.90
2022-11-06T23:53:55.183Z,99.90
2022-11-06T23:56:22.210Z,99.90
2022-11-06T23:58:49.186Z,99.90
